createdAt,value
2019-02-23T00:00:38.738Z,0
2019-02-23T00:01:40.986Z,0
2019-02-23T00:02:43.111Z,0
2019-02-23T00:03:45.254Z,0
2019-02-23T00:04:47.371Z,0
2019-02-23T00:05:49.518Z,0
2019-02-23T00:06:51.642Z,0
2019-02-23T00:07:53.802Z,0
2019-02-23T00:08:55.933Z,0
2019-02-23T00:09:58.041Z,0
2019-02-23T00:11:00.290Z,0
2019-02-23T00:12:05.473Z,0
2019-02-23T00:13:07.581Z,0
2019-02-23T00:14:09.723Z,0
2019-02-23T00:15:11.822Z,0
2019-02-23T00:16:13.968Z,0
2019-02-23T00:17:16.093Z,0
2019-02-23T00:18:18.228Z,0
2019-02-23T00:19:26.773Z,0
2019-02-23T00:20:29.299Z,0
2019-02-23T00:21:31.711Z,0
2019-02-23T00:22:33.909Z,0
2019-02-23T00:23:36.095Z,0
2019-02-23T00:24:38.196Z,0
2019-02-23T00:25:40.379Z,0
2019-02-23T00:26:42.478Z,0
2019-02-23T00:27:44.603Z,0
2019-02-23T00:28:46.716Z,0
2019-02-23T00:29:48.843Z,0
2019-02-23T00:30:50.967Z,0
2019-02-23T00:31:53.071Z,0
2019-02-23T00:32:55.199Z,0
2019-02-23T00:33:57.344Z,0
2019-02-23T00:34:59.445Z,0
2019-02-23T00:36:01.575Z,0
2019-02-23T00:37:03.996Z,0
2019-02-23T00:38:06.105Z,0
2019-02-23T00:39:08.514Z,0
2019-02-23T00:40:11.028Z,0
2019-02-23T00:41:13.127Z,0
2019-02-23T00:42:15.240Z,0
2019-02-23T00:43:17.368Z,0
2019-02-23T00:44:19.483Z,0
2019-02-23T00:45:21.593Z,0
2019-02-23T00:46:23.717Z,0
2019-02-23T00:47:25.834Z,0
2019-02-23T00:48:27.951Z,0
2019-02-23T00:49:38.192Z,0
2019-02-23T00:50:40.322Z,0
2019-02-23T00:51:42.733Z,0
2019-02-23T00:52:44.830Z,0
2019-02-23T00:53:46.959Z,0
2019-02-23T00:54:49.081Z,0
2019-02-23T00:55:51.187Z,0
2019-02-23T00:56:53.374Z,0
2019-02-23T00:57:55.473Z,0
2019-02-23T00:58:57.581Z,0
2019-02-23T00:59:59.685Z,0
2019-02-23T01:01:01.820Z,0
2019-02-23T01:02:03.955Z,0
2019-02-23T01:03:06.363Z,0
2019-02-23T01:04:08.499Z,0
2019-02-23T01:05:10.609Z,0
2019-02-23T01:06:12.734Z,0
2019-02-23T01:07:14.854Z,0
2019-02-23T01:08:16.959Z,0
2019-02-23T01:09:19.076Z,0
2019-02-23T01:10:21.730Z,0
2019-02-23T01:11:23.839Z,0
2019-02-23T01:12:25.961Z,0
2019-02-23T01:13:28.356Z,0
2019-02-23T01:14:30.737Z,0
2019-02-23T01:15:33.238Z,0
2019-02-23T01:16:35.645Z,0
2019-02-23T01:17:37.742Z,0
2019-02-23T01:18:39.868Z,0
2019-02-23T01:19:49.536Z,0
2019-02-23T01:20:51.661Z,0
2019-02-23T01:21:53.781Z,0
2019-02-23T01:22:56.172Z,0
2019-02-23T01:23:58.294Z,0
2019-02-23T01:25:00.580Z,0
2019-02-23T01:26:02.775Z,0
2019-02-23T01:27:04.893Z,0
2019-02-23T01:28:07.004Z,0
2019-02-23T01:29:09.114Z,0
2019-02-23T01:30:11.248Z,0
2019-02-23T01:31:13.359Z,0
2019-02-23T01:32:15.471Z,0
2019-02-23T01:33:17.579Z,0
2019-02-23T01:34:19.720Z,0
2019-02-23T01:35:21.825Z,0
2019-02-23T01:36:23.942Z,0
2019-02-23T01:37:26.057Z,0
2019-02-23T01:38:28.158Z,0
2019-02-23T01:39:30.277Z,0
2019-02-23T01:40:32.383Z,0
2019-02-23T01:41:34.501Z,0
2019-02-23T01:42:36.912Z,0
2019-02-23T01:43:39.420Z,0
2019-02-23T01:44:41.526Z,0
2019-02-23T01:45:44.138Z,0
2019-02-23T01:46:46.643Z,0
2019-02-23T01:47:49.038Z,0
2019-02-23T01:48:51.239Z,0
2019-02-23T01:50:00.933Z,0
2019-02-23T01:51:03.030Z,0
2019-02-23T01:52:05.151Z,0
2019-02-23T01:53:07.544Z,0
2019-02-23T01:54:09.647Z,0
2019-02-23T01:55:12.052Z,0
2019-02-23T01:56:14.161Z,0
2019-02-23T01:57:16.264Z,0
2019-02-23T01:58:18.367Z,0
2019-02-23T01:59:20.495Z,0
2019-02-23T02:00:22.589Z,0
2019-02-23T02:01:24.693Z,0
2019-02-23T02:02:26.821Z,0
2019-02-23T02:03:29.218Z,0
2019-02-23T02:04:31.316Z,0
2019-02-23T02:05:33.427Z,0
2019-02-23T02:06:35.539Z,0
2019-02-23T02:07:37.683Z,0
2019-02-23T02:08:40.350Z,0
2019-02-23T02:09:42.468Z,0
2019-02-23T02:10:44.589Z,0
2019-02-23T02:11:46.975Z,0
2019-02-23T02:12:49.099Z,0
2019-02-23T02:13:51.212Z,0
2019-02-23T02:14:53.308Z,0
2019-02-23T02:15:55.419Z,0
2019-02-23T02:16:57.546Z,0
2019-02-23T02:17:59.663Z,0
2019-02-23T02:19:01.794Z,0
2019-02-23T02:20:13.577Z,0
2019-02-23T02:21:15.964Z,0
2019-02-23T02:22:18.364Z,0
2019-02-23T02:23:20.542Z,0
2019-02-23T02:24:22.636Z,0
2019-02-23T02:25:25.041Z,0
2019-02-23T02:26:27.433Z,0
2019-02-23T02:27:29.556Z,0
2019-02-23T02:28:31.684Z,0
2019-02-23T02:29:33.790Z,0
2019-02-23T02:30:35.908Z,0
2019-02-23T02:31:38.006Z,0
2019-02-23T02:32:40.138Z,0
2019-02-23T02:33:42.247Z,0
2019-02-23T02:34:44.358Z,0
2019-02-23T02:35:46.481Z,0
2019-02-23T02:36:48.580Z,0
2019-02-23T02:37:50.998Z,0
2019-02-23T02:38:53.522Z,0
2019-02-23T02:39:55.685Z,0
2019-02-23T02:40:57.794Z,0
2019-02-23T02:42:00.602Z,0
2019-02-23T02:43:03.049Z,0
2019-02-23T02:44:05.453Z,0
2019-02-23T02:45:07.587Z,0
2019-02-23T02:46:10.399Z,0
2019-02-23T02:47:12.518Z,0
2019-02-23T02:48:14.668Z,0
2019-02-23T02:49:17.061Z,0
2019-02-23T02:50:26.125Z,0
2019-02-23T02:51:28.259Z,0
2019-02-23T02:52:30.642Z,0
2019-02-23T02:53:32.752Z,0
2019-02-23T02:54:35.257Z,0
2019-02-23T02:55:38.054Z,0
2019-02-23T02:56:40.158Z,0
2019-02-23T02:57:42.299Z,0
2019-02-23T02:58:44.413Z,0
2019-02-23T02:59:46.515Z,0
2019-02-23T03:00:48.658Z,0
2019-02-23T03:01:51.197Z,0
2019-02-23T03:02:53.609Z,0
2019-02-23T03:03:56.514Z,0
2019-02-23T03:04:58.648Z,0
2019-02-23T03:06:00.824Z,0
2019-02-23T03:07:03.246Z,0
2019-02-23T03:08:06.069Z,0
2019-02-23T03:09:08.196Z,0
2019-02-23T03:10:10.722Z,0
2019-02-23T03:11:12.845Z,0
2019-02-23T03:12:15.237Z,0
2019-02-23T03:13:17.717Z,0
2019-02-23T03:14:20.149Z,0
2019-02-23T03:15:22.257Z,0
2019-02-23T03:16:24.683Z,0
2019-02-23T03:17:26.805Z,0
2019-02-23T03:18:29.485Z,0
2019-02-23T03:19:31.887Z,0
2019-02-23T03:20:38.555Z,0
2019-02-23T03:21:40.687Z,0
2019-02-23T03:22:42.809Z,0
2019-02-23T03:23:44.927Z,0
2019-02-23T03:24:47.430Z,0
2019-02-23T03:25:49.546Z,0
2019-02-23T03:26:51.959Z,0
2019-02-23T03:27:54.083Z,0
2019-02-23T03:28:56.600Z,0
2019-02-23T03:29:59.103Z,0
2019-02-23T03:31:01.818Z,0
2019-02-23T03:32:04.047Z,0
2019-02-23T03:33:06.501Z,0
2019-02-23T03:34:08.684Z,0
2019-02-23T03:35:11.133Z,0
2019-02-23T03:36:13.732Z,0
2019-02-23T03:37:15.867Z,0
2019-02-23T03:38:18.272Z,0
2019-02-23T03:39:21.241Z,0
2019-02-23T03:40:23.361Z,0
2019-02-23T03:41:25.522Z,0
2019-02-23T03:42:27.915Z,0
2019-02-23T03:43:30.044Z,0
2019-02-23T03:44:32.431Z,0
2019-02-23T03:45:35.114Z,0
2019-02-23T03:46:37.220Z,0
2019-02-23T03:47:40.353Z,0
2019-02-23T03:48:42.453Z,0
2019-02-23T03:49:44.571Z,0
2019-02-23T03:50:50.819Z,0
2019-02-23T03:51:52.993Z,0
2019-02-23T03:52:55.117Z,0
2019-02-23T03:53:57.519Z,0
2019-02-23T03:55:00.006Z,0
2019-02-23T03:56:02.419Z,0
2019-02-23T03:57:04.540Z,0
2019-02-23T03:58:06.722Z,0
2019-02-23T03:59:08.826Z,0
2019-02-23T04:00:10.957Z,0
2019-02-23T04:01:13.375Z,0
2019-02-23T04:02:15.784Z,0
2019-02-23T04:03:18.568Z,0
2019-02-23T04:04:20.994Z,0
2019-02-23T04:05:23.412Z,0
2019-02-23T04:06:25.581Z,0
2019-02-23T04:07:27.716Z,0
2019-02-23T04:08:30.196Z,0
2019-02-23T04:09:32.321Z,0
2019-02-23T04:10:34.489Z,0
2019-02-23T04:11:36.611Z,0
2019-02-23T04:12:39.115Z,0
2019-02-23T04:13:41.961Z,0
2019-02-23T04:14:44.236Z,0
2019-02-23T04:15:46.337Z,0
2019-02-23T04:16:48.745Z,0
2019-02-23T04:17:50.856Z,0
2019-02-23T04:18:53.263Z,0
2019-02-23T04:19:55.385Z,0
2019-02-23T04:21:03.644Z,0
2019-02-23T04:22:06.139Z,0
2019-02-23T04:23:08.248Z,0
2019-02-23T04:24:10.369Z,0
2019-02-23T04:25:12.518Z,0
2019-02-23T04:26:14.640Z,0
2019-02-23T04:27:16.749Z,0
2019-02-23T04:28:18.863Z,0
2019-02-23T04:29:20.980Z,0
2019-02-23T04:30:23.684Z,0
2019-02-23T04:31:26.071Z,0
2019-02-23T04:32:28.495Z,0
2019-02-23T04:33:30.902Z,0
2019-02-23T04:34:32.993Z,0
2019-02-23T04:35:35.148Z,0
2019-02-23T04:36:37.557Z,0
2019-02-23T04:37:39.698Z,0
2019-02-23T04:38:41.954Z,0
2019-02-23T04:39:44.079Z,0
2019-02-23T04:40:46.210Z,0
2019-02-23T04:41:48.306Z,0
2019-02-23T04:42:50.426Z,0
2019-02-23T04:43:52.533Z,0
2019-02-23T04:44:54.667Z,0
2019-02-23T04:45:56.773Z,0
2019-02-23T04:46:58.909Z,0
2019-02-23T04:48:01.025Z,0
2019-02-23T04:49:03.819Z,0
2019-02-23T04:50:05.958Z,0
2019-02-23T04:51:16.410Z,0
2019-02-23T04:52:19.191Z,0
2019-02-23T04:53:21.589Z,0
2019-02-23T04:54:23.720Z,0
2019-02-23T04:55:25.828Z,0
2019-02-23T04:56:27.966Z,0
2019-02-23T04:57:30.083Z,0
2019-02-23T04:58:32.197Z,0
2019-02-23T04:59:35.263Z,0
2019-02-23T05:00:38.055Z,0
2019-02-23T05:01:40.841Z,0
2019-02-23T05:02:43.583Z,0
2019-02-23T05:03:46.081Z,0
2019-02-23T05:04:48.184Z,0
2019-02-23T05:05:50.589Z,0
2019-02-23T05:06:52.713Z,0
2019-02-23T05:07:55.106Z,0
2019-02-23T05:08:57.220Z,0
2019-02-23T05:09:59.740Z,0
2019-02-23T05:11:02.148Z,0
2019-02-23T05:12:04.569Z,0
2019-02-23T05:13:06.968Z,0
2019-02-23T05:14:09.756Z,0
2019-02-23T05:15:11.891Z,0
2019-02-23T05:16:14.026Z,0
2019-02-23T05:17:16.419Z,0
2019-02-23T05:18:19.380Z,0
2019-02-23T05:19:21.575Z,0
2019-02-23T05:20:23.947Z,0
2019-02-23T05:21:28.639Z,0
2019-02-23T05:22:30.755Z,0
2019-02-23T05:23:32.849Z,0
2019-02-23T05:24:34.967Z,0
2019-02-23T05:25:37.102Z,0
2019-02-23T05:26:39.605Z,0
2019-02-23T05:27:41.712Z,0
2019-02-23T05:28:43.837Z,0
2019-02-23T05:29:46.265Z,0
2019-02-23T05:30:48.376Z,0
2019-02-23T05:31:50.907Z,0
2019-02-23T05:32:53.011Z,0
2019-02-23T05:33:55.410Z,0
2019-02-23T05:34:57.815Z,0
2019-02-23T05:36:00.487Z,0
2019-02-23T05:37:02.594Z,0
2019-02-23T05:38:04.717Z,0
2019-02-23T05:39:06.823Z,0
2019-02-23T05:40:08.941Z,0
2019-02-23T05:41:11.362Z,0
2019-02-23T05:42:13.909Z,0
2019-02-23T05:43:16.285Z,0
2019-02-23T05:44:19.091Z,0
2019-02-23T05:45:21.196Z,0
2019-02-23T05:46:23.392Z,0
2019-02-23T05:47:25.817Z,0
2019-02-23T05:48:28.197Z,0
2019-02-23T05:49:30.319Z,0
2019-02-23T05:50:32.440Z,0
2019-02-23T05:51:40.375Z,0
2019-02-23T05:52:42.484Z,0
2019-02-23T05:53:44.671Z,0
2019-02-23T05:54:46.775Z,0
2019-02-23T05:55:48.894Z,0
2019-02-23T05:56:51.283Z,0
2019-02-23T05:57:53.404Z,0
2019-02-23T05:58:55.531Z,0
2019-02-23T05:59:58.358Z,0
2019-02-23T06:01:00.542Z,0
2019-02-23T06:02:02.660Z,0
2019-02-23T06:03:05.141Z,0
2019-02-23T06:04:07.245Z,0
2019-02-23T06:05:09.368Z,0
2019-02-23T06:06:12.142Z,0
2019-02-23T06:07:14.366Z,0
2019-02-23T06:08:16.937Z,0
2019-02-23T06:09:19.347Z,0
2019-02-23T06:10:21.458Z,0
2019-02-23T06:11:23.571Z,0
2019-02-23T06:12:25.663Z,0
2019-02-23T06:13:27.777Z,0
2019-02-23T06:14:30.233Z,1
2019-02-23T06:15:32.350Z,1
2019-02-23T06:16:34.452Z,1
2019-02-23T06:17:36.911Z,1
2019-02-23T06:18:39.013Z,1
2019-02-23T06:19:41.126Z,1
2019-02-23T06:20:44.088Z,1
2019-02-23T06:21:56.534Z,1
2019-02-23T06:22:58.646Z,2
2019-02-23T06:24:00.761Z,2
2019-02-23T06:25:04.193Z,2
2019-02-23T06:26:07.257Z,2
2019-02-23T06:27:09.384Z,3
2019-02-23T06:28:11.495Z,3
2019-02-23T06:29:13.891Z,3
2019-02-23T06:30:19.814Z,3
2019-02-23T06:31:21.995Z,4
2019-02-23T06:32:24.404Z,4
2019-02-23T06:33:26.521Z,4
2019-02-23T06:34:28.909Z,5
2019-02-23T06:35:31.046Z,5
2019-02-23T06:36:33.147Z,5
2019-02-23T06:37:35.344Z,6
2019-02-23T06:38:37.775Z,6
2019-02-23T06:39:39.922Z,6
2019-02-23T06:40:42.090Z,7
2019-02-23T06:41:44.497Z,7
2019-02-23T06:42:46.615Z,7
2019-02-23T06:43:48.718Z,8
2019-02-23T06:44:51.127Z,8
2019-02-23T06:45:53.611Z,9
2019-02-23T06:46:55.713Z,9
2019-02-23T06:47:58.117Z,9
2019-02-23T06:49:00.230Z,9
2019-02-23T06:50:02.731Z,9
2019-02-23T06:51:05.164Z,10
2019-02-23T06:52:07.549Z,10
2019-02-23T06:53:10.038Z,11
2019-02-23T06:54:12.442Z,11
2019-02-23T06:55:14.838Z,12
2019-02-23T06:56:16.965Z,12
2019-02-23T06:57:19.368Z,13
2019-02-23T06:58:21.481Z,13
2019-02-23T06:59:23.647Z,14
2019-02-23T07:00:25.843Z,14
2019-02-23T07:01:27.966Z,14
2019-02-23T07:02:30.453Z,15
2019-02-23T07:03:32.881Z,15
2019-02-23T07:04:35.570Z,16
2019-02-23T07:05:38.296Z,16
2019-02-23T07:06:41.383Z,17
2019-02-23T07:07:43.594Z,17
2019-02-23T07:08:45.705Z,17
2019-02-23T07:09:47.808Z,17
2019-02-23T07:10:49.910Z,18
2019-02-23T07:11:52.042Z,18
2019-02-23T07:12:54.136Z,18
2019-02-23T07:13:56.287Z,19
2019-02-23T07:14:58.405Z,19
2019-02-23T07:16:00.522Z,20
2019-02-23T07:17:05.389Z,20
2019-02-23T07:18:07.815Z,21
2019-02-23T07:19:09.918Z,22
2019-02-23T07:20:12.034Z,21
2019-02-23T07:21:14.153Z,22
2019-02-23T07:22:17.603Z,22
2019-02-23T07:23:19.716Z,23
2019-02-23T07:24:21.837Z,23
2019-02-23T07:25:23.941Z,23
2019-02-23T07:26:26.049Z,24
2019-02-23T07:27:28.178Z,27
2019-02-23T07:28:30.265Z,30
2019-02-23T07:29:32.395Z,34
2019-02-23T07:30:34.524Z,41
2019-02-23T07:31:36.638Z,44
2019-02-23T07:32:39.027Z,42
2019-02-23T07:33:41.148Z,42
2019-02-23T07:34:43.264Z,46
2019-02-23T07:35:45.385Z,50
2019-02-23T07:36:47.807Z,51
2019-02-23T07:37:50.596Z,52
2019-02-23T07:38:52.699Z,53
2019-02-23T07:39:54.798Z,54
2019-02-23T07:40:56.921Z,56
2019-02-23T07:41:59.018Z,59
2019-02-23T07:43:01.128Z,60
2019-02-23T07:44:05.136Z,61
2019-02-23T07:45:07.566Z,62
2019-02-23T07:46:09.688Z,63
2019-02-23T07:47:11.809Z,64
2019-02-23T07:48:14.211Z,65
2019-02-23T07:49:16.316Z,66
2019-02-23T07:50:18.730Z,66
2019-02-23T07:51:20.839Z,67
2019-02-23T07:52:28.022Z,70
2019-02-23T07:53:30.137Z,73
2019-02-23T07:54:32.243Z,73
2019-02-23T07:55:34.365Z,76
2019-02-23T07:56:36.560Z,81
2019-02-23T07:57:38.959Z,85
2019-02-23T07:58:41.082Z,85
2019-02-23T07:59:43.195Z,84
2019-02-23T08:00:45.377Z,87
2019-02-23T08:01:47.725Z,76
2019-02-23T08:02:49.846Z,86
2019-02-23T08:03:51.959Z,97
2019-02-23T08:04:54.058Z,94
2019-02-23T08:05:56.191Z,91
2019-02-23T08:06:58.294Z,88
2019-02-23T08:08:00.715Z,93
2019-02-23T08:09:02.843Z,96
2019-02-23T08:10:05.238Z,94
2019-02-23T08:11:07.359Z,95
2019-02-23T08:12:09.474Z,95
2019-02-23T08:13:11.989Z,97
2019-02-23T08:14:14.081Z,98
2019-02-23T08:15:16.302Z,105
2019-02-23T08:16:18.414Z,108
2019-02-23T08:17:20.816Z,104
2019-02-23T08:18:22.946Z,97
2019-02-23T08:19:25.053Z,102
2019-02-23T08:20:27.174Z,107
2019-02-23T08:21:29.294Z,112
2019-02-23T08:22:38.858Z,113
2019-02-23T08:23:40.982Z,107
2019-02-23T08:24:43.092Z,105
2019-02-23T08:25:45.227Z,107
2019-02-23T08:26:47.942Z,107
2019-02-23T08:27:50.048Z,107
2019-02-23T08:28:52.452Z,114
2019-02-23T08:29:54.582Z,117
2019-02-23T08:30:56.680Z,112
2019-02-23T08:31:59.496Z,93
2019-02-23T08:33:02.187Z,114
2019-02-23T08:34:04.591Z,118
2019-02-23T08:35:07.109Z,120
2019-02-23T08:36:09.217Z,115
2019-02-23T08:37:11.336Z,117
2019-02-23T08:38:13.440Z,80
2019-02-23T08:39:15.567Z,60
2019-02-23T08:40:17.716Z,80
2019-02-23T08:41:19.839Z,72
2019-02-23T08:42:21.971Z,85
2019-02-23T08:43:24.079Z,62
2019-02-23T08:44:26.225Z,77
2019-02-23T08:45:28.406Z,76
2019-02-23T08:46:30.527Z,90
2019-02-23T08:47:33.018Z,79
2019-02-23T08:48:35.163Z,98
2019-02-23T08:49:37.270Z,92
2019-02-23T08:50:39.397Z,88
2019-02-23T08:51:41.526Z,96
2019-02-23T08:52:51.530Z,120
2019-02-23T08:53:53.922Z,133
2019-02-23T08:54:56.053Z,103
2019-02-23T08:55:58.172Z,129
2019-02-23T08:57:00.282Z,136
2019-02-23T08:58:02.418Z,146
2019-02-23T08:59:05.201Z,134
2019-02-23T09:00:07.324Z,141
2019-02-23T09:01:09.753Z,149
2019-02-23T09:02:11.947Z,159
2019-02-23T09:03:14.344Z,163
2019-02-23T09:04:16.469Z,158
2019-02-23T09:05:18.899Z,158
2019-02-23T09:06:21.013Z,153
2019-02-23T09:07:23.142Z,157
2019-02-23T09:08:25.246Z,141
2019-02-23T09:09:27.450Z,144
2019-02-23T09:10:29.565Z,149
2019-02-23T09:11:31.685Z,125
2019-02-23T09:12:33.791Z,125
2019-02-23T09:13:35.910Z,125
2019-02-23T09:14:38.027Z,116
2019-02-23T09:15:40.427Z,111
2019-02-23T09:16:42.551Z,116
2019-02-23T09:17:44.658Z,105
2019-02-23T09:18:46.775Z,103
2019-02-23T09:19:48.885Z,117
2019-02-23T09:20:53.310Z,122
2019-02-23T09:21:55.422Z,125
2019-02-23T09:23:02.006Z,103
2019-02-23T09:24:04.513Z,99
2019-02-23T09:25:06.612Z,101
2019-02-23T09:26:09.038Z,99
2019-02-23T09:27:11.155Z,97
2019-02-23T09:28:13.550Z,92
2019-02-23T09:29:15.947Z,95
2019-02-23T09:30:18.075Z,101
2019-02-23T09:31:20.191Z,99
2019-02-23T09:32:22.593Z,100
2019-02-23T09:33:24.712Z,98
2019-02-23T09:34:26.831Z,101
2019-02-23T09:35:28.948Z,109
2019-02-23T09:36:31.073Z,114
2019-02-23T09:37:33.168Z,114
2019-02-23T09:38:35.675Z,120
2019-02-23T09:39:38.454Z,127
2019-02-23T09:40:40.573Z,136
2019-02-23T09:41:42.666Z,130
2019-02-23T09:42:45.181Z,130
2019-02-23T09:43:47.584Z,148
2019-02-23T09:44:50.133Z,154
2019-02-23T09:45:52.550Z,162
2019-02-23T09:46:54.677Z,131
2019-02-23T09:47:56.798Z,146
2019-02-23T09:48:59.196Z,139
2019-02-23T09:50:01.400Z,152
2019-02-23T09:51:03.508Z,145
2019-02-23T09:52:05.639Z,153
2019-02-23T09:53:12.806Z,147
2019-02-23T09:54:14.933Z,177
2019-02-23T09:55:17.051Z,182
2019-02-23T09:56:19.184Z,184
2019-02-23T09:57:21.327Z,190
2019-02-23T09:58:23.440Z,193
2019-02-23T09:59:25.571Z,187
2019-02-23T10:00:28.041Z,191
2019-02-23T10:01:30.149Z,186
2019-02-23T10:02:32.272Z,178
2019-02-23T10:03:34.402Z,177
2019-02-23T10:04:36.815Z,163
2019-02-23T10:05:39.714Z,138
2019-02-23T10:06:41.831Z,139
2019-02-23T10:07:43.933Z,138
2019-02-23T10:08:46.140Z,139
2019-02-23T10:09:48.709Z,141
2019-02-23T10:10:51.145Z,135
2019-02-23T10:11:53.272Z,124
2019-02-23T10:12:55.390Z,122
2019-02-23T10:13:57.495Z,127
2019-02-23T10:15:00.046Z,137
2019-02-23T10:16:02.578Z,135
2019-02-23T10:17:04.706Z,140
2019-02-23T10:18:06.816Z,153
2019-02-23T10:19:08.953Z,162
2019-02-23T10:20:11.129Z,168
2019-02-23T10:21:13.274Z,160
2019-02-23T10:22:15.425Z,155
2019-02-23T10:23:23.984Z,164
2019-02-23T10:24:26.257Z,152
2019-02-23T10:25:28.441Z,152
2019-02-23T10:26:30.648Z,149
2019-02-23T10:27:33.155Z,142
2019-02-23T10:28:35.292Z,133
2019-02-23T10:29:37.805Z,133
2019-02-23T10:30:39.920Z,131
2019-02-23T10:31:42.108Z,131
2019-02-23T10:32:44.219Z,127
2019-02-23T10:33:49.158Z,129
2019-02-23T10:34:51.347Z,141
2019-02-23T10:35:53.462Z,154
2019-02-23T10:36:55.569Z,166
2019-02-23T10:37:57.794Z,168
2019-02-23T10:38:59.898Z,166
2019-02-23T10:40:02.011Z,167
2019-02-23T10:41:04.146Z,162
2019-02-23T10:42:06.604Z,156
2019-02-23T10:43:08.728Z,155
2019-02-23T10:44:11.261Z,167
2019-02-23T10:45:13.416Z,183
2019-02-23T10:46:15.542Z,184
2019-02-23T10:47:17.769Z,183
2019-02-23T10:48:19.875Z,177
2019-02-23T10:49:22.053Z,167
2019-02-23T10:50:24.534Z,162
2019-02-23T10:51:26.669Z,159
2019-02-23T10:52:28.785Z,153
2019-02-23T10:53:34.352Z,163
2019-02-23T10:54:36.472Z,152
2019-02-23T10:55:38.593Z,137
2019-02-23T10:56:41.094Z,138
2019-02-23T10:57:43.254Z,151
2019-02-23T10:58:45.374Z,155
2019-02-23T10:59:47.529Z,131
2019-02-23T11:00:49.945Z,131
2019-02-23T11:01:52.363Z,139
2019-02-23T11:02:54.486Z,136
2019-02-23T11:03:56.587Z,144
2019-02-23T11:04:58.730Z,154
2019-02-23T11:06:00.834Z,165
2019-02-23T11:07:02.977Z,155
2019-02-23T11:08:05.175Z,151
2019-02-23T11:09:07.578Z,155
2019-02-23T11:10:09.713Z,151
2019-02-23T11:11:11.837Z,173
2019-02-23T11:12:14.295Z,201
2019-02-23T11:13:16.420Z,206
2019-02-23T11:14:18.598Z,215
2019-02-23T11:15:20.717Z,226
2019-02-23T11:16:22.834Z,224
2019-02-23T11:17:25.251Z,221
2019-02-23T11:18:27.370Z,215
2019-02-23T11:19:29.509Z,217
2019-02-23T11:20:31.688Z,215
2019-02-23T11:21:33.838Z,241
2019-02-23T11:22:35.968Z,238
2019-02-23T11:23:45.776Z,229
2019-02-23T11:24:47.913Z,197
2019-02-23T11:25:50.037Z,171
2019-02-23T11:26:52.558Z,165
2019-02-23T11:27:55.104Z,183
2019-02-23T11:28:57.219Z,209
2019-02-23T11:29:59.419Z,217
2019-02-23T11:31:01.533Z,218
2019-02-23T11:32:03.709Z,237
2019-02-23T11:33:05.829Z,244
2019-02-23T11:34:07.970Z,242
2019-02-23T11:35:10.165Z,239
2019-02-23T11:36:12.565Z,228
2019-02-23T11:37:14.754Z,181
2019-02-23T11:38:16.896Z,192
2019-02-23T11:39:19.441Z,182
2019-02-23T11:40:24.908Z,185
2019-02-23T11:41:27.323Z,197
2019-02-23T11:42:29.439Z,220
2019-02-23T11:43:31.943Z,227
2019-02-23T11:44:34.466Z,252
2019-02-23T11:45:36.589Z,248
2019-02-23T11:46:38.714Z,254
2019-02-23T11:47:41.243Z,247
2019-02-23T11:48:43.391Z,229
2019-02-23T11:49:45.511Z,213
2019-02-23T11:50:47.656Z,231
2019-02-23T11:51:49.774Z,227
2019-02-23T11:52:51.897Z,245
2019-02-23T11:53:56.621Z,242
2019-02-23T11:54:58.731Z,245
2019-02-23T11:56:01.246Z,241
2019-02-23T11:57:03.463Z,222
2019-02-23T11:58:05.605Z,245
2019-02-23T11:59:07.706Z,243
2019-02-23T12:00:09.857Z,239
2019-02-23T12:01:11.974Z,225
2019-02-23T12:02:14.087Z,207
2019-02-23T12:03:16.217Z,189
2019-02-23T12:04:18.333Z,188
2019-02-23T12:05:20.850Z,195
2019-02-23T12:06:22.967Z,197
2019-02-23T12:07:25.105Z,211
2019-02-23T12:08:27.495Z,215
2019-02-23T12:09:29.619Z,220
2019-02-23T12:10:31.759Z,216
2019-02-23T12:11:33.868Z,213
2019-02-23T12:12:35.995Z,201
2019-02-23T12:13:38.128Z,199
2019-02-23T12:14:40.264Z,191
2019-02-23T12:15:42.385Z,193
2019-02-23T12:16:44.499Z,198
2019-02-23T12:17:46.623Z,209
2019-02-23T12:18:48.734Z,217
2019-02-23T12:19:50.868Z,232
2019-02-23T12:20:53.005Z,235
2019-02-23T12:21:55.127Z,247
2019-02-23T12:22:57.244Z,236
2019-02-23T12:24:07.663Z,236
2019-02-23T12:25:12.549Z,238
2019-02-23T12:26:17.154Z,201
2019-02-23T12:27:19.314Z,227
2019-02-23T12:28:21.459Z,229
2019-02-23T12:29:23.593Z,190
2019-02-23T12:30:25.726Z,185
2019-02-23T12:31:27.875Z,146
2019-02-23T12:32:29.982Z,129
2019-02-23T12:33:32.397Z,118
2019-02-23T12:34:34.532Z,147
2019-02-23T12:35:37.035Z,173
2019-02-23T12:36:39.187Z,213
2019-02-23T12:37:41.311Z,220
2019-02-23T12:38:43.440Z,225
2019-02-23T12:39:45.948Z,239
2019-02-23T12:40:48.097Z,235
2019-02-23T12:41:50.605Z,237
2019-02-23T12:42:53.124Z,229
2019-02-23T12:43:55.321Z,247
2019-02-23T12:44:57.425Z,244
2019-02-23T12:45:59.563Z,245
2019-02-23T12:47:01.701Z,251
2019-02-23T12:48:03.834Z,221
2019-02-23T12:49:06.646Z,176
2019-02-23T12:50:08.782Z,171
2019-02-23T12:51:10.909Z,206
2019-02-23T12:52:13.148Z,232
2019-02-23T12:53:15.552Z,243
2019-02-23T12:54:18.741Z,244
2019-02-23T12:55:20.868Z,232
2019-02-23T12:56:23.003Z,241
2019-02-23T12:57:25.112Z,212
2019-02-23T12:58:27.526Z,192
2019-02-23T12:59:29.660Z,207
2019-02-23T13:00:32.194Z,224
2019-02-23T13:01:34.335Z,228
2019-02-23T13:02:36.458Z,200
2019-02-23T13:03:39.276Z,200
2019-02-23T13:04:41.389Z,189
2019-02-23T13:05:43.609Z,200
2019-02-23T13:06:45.740Z,207
2019-02-23T13:07:48.252Z,200
2019-02-23T13:08:50.677Z,191
2019-02-23T13:09:53.180Z,196
2019-02-23T13:10:55.312Z,182
2019-02-23T13:11:57.434Z,171
2019-02-23T13:12:59.982Z,181
2019-02-23T13:14:02.395Z,182
2019-02-23T13:15:04.817Z,151
2019-02-23T13:16:07.218Z,153
2019-02-23T13:17:09.339Z,156
2019-02-23T13:18:11.486Z,137
2019-02-23T13:19:13.610Z,142
2019-02-23T13:20:15.813Z,147
2019-02-23T13:21:17.950Z,143
2019-02-23T13:22:20.077Z,139
2019-02-23T13:23:22.199Z,152
2019-02-23T13:24:29.880Z,173
2019-02-23T13:25:32.024Z,158
2019-02-23T13:26:34.152Z,178
2019-02-23T13:27:36.309Z,193
2019-02-23T13:28:38.440Z,189
2019-02-23T13:29:40.569Z,159
2019-02-23T13:30:42.679Z,161
2019-02-23T13:31:44.808Z,159
2019-02-23T13:32:46.957Z,150
2019-02-23T13:33:49.082Z,102
2019-02-23T13:34:51.218Z,121
2019-02-23T13:35:53.346Z,80
2019-02-23T13:36:55.515Z,88
2019-02-23T13:37:57.629Z,159
2019-02-23T13:38:59.775Z,153
2019-02-23T13:40:01.947Z,136
2019-02-23T13:41:04.367Z,153
2019-02-23T13:42:07.129Z,112
2019-02-23T13:43:09.240Z,124
2019-02-23T13:44:12.059Z,103
2019-02-23T13:45:14.487Z,113
2019-02-23T13:46:16.623Z,141
2019-02-23T13:47:18.734Z,134
2019-02-23T13:48:23.255Z,125
2019-02-23T13:49:25.450Z,135
2019-02-23T13:50:27.593Z,139
2019-02-23T13:51:29.803Z,133
2019-02-23T13:52:32.228Z,120
2019-02-23T13:53:34.347Z,140
2019-02-23T13:54:40.416Z,117
2019-02-23T13:55:42.542Z,126
2019-02-23T13:56:44.728Z,144
2019-02-23T13:57:46.854Z,87
2019-02-23T13:58:49.199Z,87
2019-02-23T13:59:51.613Z,80
2019-02-23T14:00:53.747Z,98
2019-02-23T14:01:55.896Z,108
2019-02-23T14:02:58.008Z,87
2019-02-23T14:04:00.152Z,97
2019-02-23T14:05:02.299Z,79
2019-02-23T14:06:04.731Z,80
2019-02-23T14:07:06.859Z,90
2019-02-23T14:08:09.024Z,82
2019-02-23T14:09:11.141Z,93
2019-02-23T14:10:13.265Z,89
2019-02-23T14:11:15.389Z,100
2019-02-23T14:12:17.526Z,103
2019-02-23T14:13:19.650Z,105
2019-02-23T14:14:22.159Z,110
2019-02-23T14:15:24.290Z,115
2019-02-23T14:16:26.396Z,99
2019-02-23T14:17:28.531Z,77
2019-02-23T14:18:30.650Z,79
2019-02-23T14:19:32.787Z,87
2019-02-23T14:20:34.901Z,107
2019-02-23T14:21:37.033Z,102
2019-02-23T14:22:39.152Z,85
2019-02-23T14:23:41.271Z,80
2019-02-23T14:24:51.998Z,71
2019-02-23T14:25:54.153Z,65
2019-02-23T14:26:56.570Z,58
2019-02-23T14:27:58.709Z,54
2019-02-23T14:29:00.824Z,53
2019-02-23T14:30:02.943Z,54
2019-02-23T14:31:05.095Z,51
2019-02-23T14:32:07.216Z,51
2019-02-23T14:33:09.340Z,50
2019-02-23T14:34:11.475Z,43
2019-02-23T14:35:13.607Z,43
2019-02-23T14:36:16.002Z,42
2019-02-23T14:37:18.148Z,47
2019-02-23T14:38:20.285Z,46
2019-02-23T14:39:22.404Z,48
2019-02-23T14:40:24.711Z,49
2019-02-23T14:41:26.899Z,43
2019-02-23T14:42:29.357Z,42
2019-02-23T14:43:31.649Z,41
2019-02-23T14:44:33.804Z,38
2019-02-23T14:45:35.974Z,36
2019-02-23T14:46:38.072Z,35
2019-02-23T14:47:40.180Z,35
2019-02-23T14:48:42.251Z,35
2019-02-23T14:49:44.429Z,35
2019-02-23T14:50:46.651Z,35
2019-02-23T14:51:48.821Z,34
2019-02-23T14:52:51.074Z,34
2019-02-23T14:53:53.551Z,33